Time;durP1;ratioP1;P1;durP2;ratioP2;P2;SDS_P1;SDS_P2;PMS_P1;PMS_P2;Temp;Humidity;BMP_temperature;BMP_pressure;BME280_temperature;BME280_humidity;BME280_pressure;Samples;Min_cycle;Max_cycle;Signal;HPM_P1;HPM_P2
2022/11/23 00:01:34;;;;;;;8.60;8.00;;;;;;;;;;4993726;28;20045;-58
2022/11/23 00:04:05;;;;;;;8.57;7.97;;;;;;;;;;4992981;28;20357;-59
2022/11/23 00:06:31;;;;;;;8.93;8.32;;;;;;;;;;4996060;28;20464;-59
2022/11/23 00:08:57;;;;;;;8.30;7.70;;;;;;;;;;4995453;28;20471;-58
2022/11/23 00:11:24;;;;;;;9.13;8.52;;;;;;;;;;4991709;28;20436;-58
2022/11/23 00:13:50;;;;;;;8.70;8.00;;;;;;;;;;4993921;28;20122;-58
2022/11/23 00:16:18;;;;;;;8.63;8.13;;;;;;;;;;4994264;28;20026;-58
2022/11/23 00:18:44;;;;;;;8.63;8.02;;;;;;;;;;4993363;28;20042;-58
2022/11/23 00:21:12;;;;;;;7.82;7.32;;;;;;;;;;4995428;28;20430;-58
2022/11/23 00:23:38;;;;;;;8.75;8.15;;;;;;;;;;4992314;28;20049;-58
2022/11/23 00:26:04;;;;;;;10.57;8.45;;;;;;;;;;4997394;28;20029;-58
2022/11/23 00:28:30;;;;;;;7.80;7.30;;;;;;;;;;4994765;28;20037;-58
2022/11/23 00:30:55;;;;;;;9.13;8.45;;;;;;;;;;4995051;28;20029;-58
2022/11/23 00:33:21;;;;;;;9.18;8.07;;;;;;;;;;4991433;28;20029;-58
2022/11/23 00:35:46;;;;;;;8.52;7.97;;;;;;;;;;4992444;28;20034;-58
2022/11/23 00:38:11;;;;;;;8.02;7.53;;;;;;;;;;4995404;28;20025;-58
2022/11/23 00:40:37;;;;;;;8.48;7.97;;;;;;;;;;4994663;28;20037;-58
2022/11/23 00:43:02;;;;;;;8.30;7.80;;;;;;;;;;4994181;28;20108;-58
2022/11/23 00:45:28;;;;;;;13.20;8.60;;;;;;;;;;4992947;28;20042;-58
2022/11/23 00:47:53;;;;;;;8.18;7.68;;;;;;;;;;4991999;28;20068;-58
2022/11/23 00:50:19;;;;;;;7.57;7.07;;;;;;;;;;4992095;28;20456;-58
2022/11/23 00:52:44;;;;;;;8.00;7.50;;;;;;;;;;4991409;28;20270;-58
2022/11/23 00:55:10;;;;;;;8.70;8.10;;;;;;;;;;4995729;28;20057;-58
2022/11/23 00:57:35;;;;;;;8.68;8.07;;;;;;;;;;4994318;28;20065;-58
2022/11/23 01:00:00;;;;;;;10.25;9.32;;;;;;;;;;4990975;28;20515;-58
2022/11/23 01:02:26;;;;;;;8.43;7.85;;;;;;;;;;4992759;28;20023;-60
2022/11/23 01:04:51;;;;;;;8.90;8.30;;;;;;;;;;4993230;28;20231;-58
2022/11/23 01:07:17;;;;;;;8.75;8.07;;;;;;;;;;4993373;28;20096;-58
2022/11/23 01:09:42;;;;;;;9.05;8.45;;;;;;;;;;4992448;28;20026;-58
2022/11/23 01:12:08;;;;;;;9.20;8.35;;;;;;;;;;4991306;28;20039;-58
2022/11/23 01:14:33;;;;;;;9.10;8.50;;;;;;;;;;4995010;28;20157;-58
2022/11/23 01:16:58;;;;;;;8.15;7.65;;;;;;;;;;4995524;28;20458;-58
2022/11/23 01:19:24;;;;;;;7.72;7.22;;;;;;;;;;4990271;28;20026;-58
2022/11/23 01:21:49;;;;;;;7.93;7.43;;;;;;;;;;4994583;28;20044;-58
2022/11/23 01:24:21;;;;;;;8.20;7.70;;;;;;;;;;4991462;28;20326;-58
2022/11/23 01:26:51;;;;;;;7.93;7.43;;;;;;;;;;4996837;28;20049;-58
2022/11/23 01:29:17;;;;;;;7.70;7.20;;;;;;;;;;4990551;28;20195;-58
2022/11/23 01:31:42;;;;;;;8.27;7.78;;;;;;;;;;4993100;28;20512;-58
2022/11/23 01:34:11;;;;;;;8.75;8.15;;;;;;;;;;4994780;28;20188;-58
2022/11/23 01:36:36;;;;;;;7.60;7.10;;;;;;;;;;4992551;28;20038;-58
2022/11/23 01:39:03;;;;;;;8.00;7.50;;;;;;;;;;4992488;28;20029;-58
2022/11/23 01:41:40;;;;;;;8.52;8.00;;;;;;;;;;4998496;28;20386;-58
2022/11/23 01:44:40;;;;;;;7.70;7.15;;;;;;;;;;4993587;28;20026;-58
2022/11/23 01:47:07;;;;;;;8.50;7.90;;;;;;;;;;4971753;28;20042;-58
2022/11/23 01:49:39;;;;;;;7.47;6.97;;;;;;;;;;4991733;28;20100;-58
2022/11/23 01:52:18;;;;;;;13.55;8.02;;;;;;;;;;4992373;28;20093;-58
2022/11/23 01:54:49;;;;;;;7.80;7.30;;;;;;;;;;4994432;28;20092;-58
2022/11/23 01:57:20;;;;;;;13.70;8.53;;;;;;;;;;4993845;28;20030;-58
2022/11/23 01:59:46;;;;;;;;;;;;;;;;;;4990044;28;20744;-58
2022/11/23 02:02:13;;;;;;;7.80;7.30;;;;;;;;;;4992115;28;19969;-58
2022/11/23 02:04:42;;;;;;;7.85;7.35;;;;;;;;;;4990687;28;20197;-58
2022/11/23 02:07:08;;;;;;;8.02;7.53;;;;;;;;;;4991023;28;20029;-58
2022/11/23 02:09:34;;;;;;;8.40;7.80;;;;;;;;;;4993554;28;20262;-59
2022/11/23 02:12:00;;;;;;;8.55;7.95;;;;;;;;;;4989928;28;20383;-58
2022/11/23 02:14:26;;;;;;;8.35;7.75;;;;;;;;;;4993918;28;20030;-58
2022/11/23 02:16:52;;;;;;;8.20;7.70;;;;;;;;;;4993033;28;20034;-58
2022/11/23 02:19:49;;;;;;;8.30;7.78;;;;;;;;;;4991494;28;20553;-58
2022/11/23 02:22:28;;;;;;;7.93;7.43;;;;;;;;;;4990267;28;20441;-58
2022/11/23 02:24:54;;;;;;;8.02;7.53;;;;;;;;;;4988818;28;21424;-58
2022/11/23 02:27:21;;;;;;;7.95;7.45;;;;;;;;;;4991024;28;20170;-58
2022/11/23 02:29:47;;;;;;;9.07;8.27;;;;;;;;;;4992642;28;20096;-58
2022/11/23 02:32:22;;;;;;;7.32;6.82;;;;;;;;;;4994043;28;20034;-58
2022/11/23 02:34:48;;;;;;;8.73;8.13;;;;;;;;;;4994295;28;20556;-58
2022/11/23 02:37:13;;;;;;;7.80;7.30;;;;;;;;;;4996696;28;20488;-59
2022/11/23 02:39:47;;;;;;;8.48;7.88;;;;;;;;;;4994406;28;20044;-58
2022/11/23 02:42:12;;;;;;;7.88;7.38;;;;;;;;;;4997664;28;20022;-58
2022/11/23 02:44:59;;;;;;;8.35;7.85;;;;;;;;;;4994950;28;20101;-58
2022/11/23 02:47:24;;;;;;;7.72;7.22;;;;;;;;;;4997941;28;20034;-58
2022/11/23 02:49:50;;;;;;;7.82;7.32;;;;;;;;;;4996288;28;20049;-58
2022/11/23 02:52:17;;;;;;;7.75;7.25;;;;;;;;;;4995251;28;20243;-58
2022/11/23 02:54:42;;;;;;;7.40;6.90;;;;;;;;;;4995962;28;20030;-58
2022/11/23 02:57:08;;;;;;;9.70;8.88;;;;;;;;;;4996896;28;20152;-58
2022/11/23 02:59:34;;;;;;;8.57;7.97;;;;;;;;;;4994373;28;20065;-58
2022/11/23 03:02:00;;;;;;;8.30;7.75;;;;;;;;;;4995798;28;20332;-58
2022/11/23 03:04:25;;;;;;;8.75;8.15;;;;;;;;;;4995947;28;20061;-58
2022/11/23 03:06:52;;;;;;;10.07;7.25;;;;;;;;;;4996323;28;20062;-58
2022/11/23 03:09:17;;;;;;;7.38;6.88;;;;;;;;;;4994098;28;20030;-58
2022/11/23 03:11:42;;;;;;;7.90;7.40;;;;;;;;;;4994397;28;20034;-58
2022/11/23 03:14:08;;;;;;;8.55;8.05;;;;;;;;;;4994396;28;20368;-58
2022/11/23 03:16:33;;;;;;;8.07;7.57;;;;;;;;;;4998000;28;20044;-58
2022/11/23 03:18:59;;;;;;;8.00;7.50;;;;;;;;;;4996811;28;20447;-58
2022/11/23 03:21:24;;;;;;;7.88;7.38;;;;;;;;;;4996428;28;20114;-58
2022/11/23 03:23:50;;;;;;;7.90;7.40;;;;;;;;;;4995621;28;20045;-58
2022/11/23 03:26:15;;;;;;;11.35;8.68;;;;;;;;;;4992681;28;20133;-58
2022/11/23 03:28:40;;;;;;;9.63;8.70;;;;;;;;;;4998906;28;20041;-58
2022/11/23 03:31:06;;;;;;;9.13;8.52;;;;;;;;;;4996243;28;20031;-58
2022/11/23 03:33:32;;;;;;;9.15;8.55;;;;;;;;;;4997704;28;20096;-58
2022/11/23 03:35:58;;;;;;;8.20;7.70;;;;;;;;;;4996953;28;20026;-58
2022/11/23 03:38:23;;;;;;;8.45;7.85;;;;;;;;;;4995684;28;20050;-58
2022/11/23 03:40:49;;;;;;;7.65;7.15;;;;;;;;;;4994015;28;20056;-58
2022/11/23 03:43:15;;;;;;;7.85;7.35;;;;;;;;;;4995849;28;20475;-58
2022/11/23 03:45:41;;;;;;;9.32;8.52;;;;;;;;;;4991790;28;20121;-58
2022/11/23 03:48:06;;;;;;;8.77;8.00;;;;;;;;;;4993621;28;20034;-58
2022/11/23 03:50:32;;;;;;;8.52;7.93;;;;;;;;;;4993622;28;20514;-58
2022/11/23 03:52:58;;;;;;;8.20;7.70;;;;;;;;;;4992903;28;20155;-58
2022/11/23 03:55:24;;;;;;;7.75;7.25;;;;;;;;;;4995383;28;20038;-58
2022/11/23 03:57:49;;;;;;;8.95;8.35;;;;;;;;;;4994554;28;20356;-58
2022/11/23 04:00:15;;;;;;;8.15;7.65;;;;;;;;;;4993682;28;20131;-58
2022/11/23 04:02:41;;;;;;;7.93;7.43;;;;;;;;;;4992002;28;20238;-58
2022/11/23 04:05:07;;;;;;;7.90;7.40;;;;;;;;;;4994095;28;20030;-58
2022/11/23 04:07:33;;;;;;;11.13;8.05;;;;;;;;;;4994981;28;20250;-58
2022/11/23 04:09:58;;;;;;;8.85;8.25;;;;;;;;;;4992997;28;20061;-58
2022/11/23 04:12:25;;;;;;;7.40;6.90;;;;;;;;;;4994816;28;20033;-58
2022/11/23 04:14:50;;;;;;;9.15;8.35;;;;;;;;;;4997154;28;20041;-58
2022/11/23 04:17:16;;;;;;;8.18;7.68;;;;;;;;;;4996120;28;20060;-58
2022/11/23 04:19:41;;;;;;;7.57;7.07;;;;;;;;;;4994167;28;20034;-58
2022/11/23 04:22:07;;;;;;;7.65;7.15;;;;;;;;;;4992640;28;20037;-58
2022/11/23 04:24:32;;;;;;;7.60;7.10;;;;;;;;;;4993357;28;20030;-58
2022/11/23 04:26:57;;;;;;;13.15;8.15;;;;;;;;;;4997455;28;20029;-58
2022/11/23 04:29:23;;;;;;;10.43;8.57;;;;;;;;;;4991604;28;20034;-58
2022/11/23 04:31:48;;;;;;;8.80;8.15;;;;;;;;;;4992544;28;20037;-58
2022/11/23 04:34:13;;;;;;;8.25;7.68;;;;;;;;;;4997444;28;20522;-58
2022/11/23 04:36:39;;;;;;;7.63;7.13;;;;;;;;;;4994062;28;20034;-58
2022/11/23 04:39:06;;;;;;;8.27;7.55;;;;;;;;;;4993454;28;20030;-58
2022/11/23 04:41:31;;;;;;;7.85;7.35;;;;;;;;;;4992990;28;20056;-58
2022/11/23 04:43:57;;;;;;;8.52;7.82;;;;;;;;;;5001520;28;20463;-58
2022/11/23 04:46:22;;;;;;;8.13;7.63;;;;;;;;;;4992008;28;20030;-58
2022/11/23 04:48:48;;;;;;;7.93;7.43;;;;;;;;;;4995907;28;20045;-58
2022/11/23 04:51:13;;;;;;;8.73;8.18;;;;;;;;;;4991155;28;20069;-58
2022/11/23 04:53:39;;;;;;;7.60;7.10;;;;;;;;;;4992903;28;20510;-58
2022/11/23 04:56:05;;;;;;;7.40;6.90;;;;;;;;;;4995031;28;20133;-58
2022/11/23 04:58:30;;;;;;;8.07;7.57;;;;;;;;;;4993256;28;20034;-58
2022/11/23 05:00:57;;;;;;;9.10;8.50;;;;;;;;;;4992694;28;20041;-58
2022/11/23 05:03:22;;;;;;;7.60;7.10;;;;;;;;;;4992468;28;20034;-58
2022/11/23 05:05:47;;;;;;;8.70;8.10;;;;;;;;;;4992501;28;20222;-58
2022/11/23 05:08:13;;;;;;;7.82;7.32;;;;;;;;;;4991495;28;20030;-58
2022/11/23 05:10:38;;;;;;;7.72;7.20;;;;;;;;;;4991561;28;20031;-58
2022/11/23 05:13:04;;;;;;;8.02;7.53;;;;;;;;;;4990709;28;20033;-58
2022/11/23 05:15:29;;;;;;;7.85;7.25;;;;;;;;;;4994720;28;20056;-59
2022/11/23 05:18:00;;;;;;;8.23;7.63;;;;;;;;;;4992160;28;20033;-58
2022/11/23 05:20:26;;;;;;;8.05;7.55;;;;;;;;;;4991527;28;20372;-58
2022/11/23 05:22:51;;;;;;;8.85;8.25;;;;;;;;;;4992690;28;20053;-58
2022/11/23 05:25:17;;;;;;;8.65;7.95;;;;;;;;;;4993491;28;20034;-58
2022/11/23 05:27:42;;;;;;;9.05;8.32;;;;;;;;;;4990726;28;20049;-58
2022/11/23 05:30:08;;;;;;;7.55;7.05;;;;;;;;;;4994506;28;20034;-58
2022/11/23 05:32:34;;;;;;;8.68;8.07;;;;;;;;;;4991094;28;20045;-58
2022/11/23 05:34:59;;;;;;;9.05;8.45;;;;;;;;;;4994892;28;20520;-58
2022/11/23 05:37:24;;;;;;;8.27;7.78;;;;;;;;;;4990707;28;20432;-58
2022/11/23 05:39:50;;;;;;;7.47;6.88;;;;;;;;;;4992808;28;20037;-59
2022/11/23 05:42:15;;;;;;;7.85;7.35;;;;;;;;;;4988025;28;20125;-58
2022/11/23 05:44:40;;;;;;;8.60;8.00;;;;;;;;;;4991951;28;20038;-58
2022/11/23 05:47:06;;;;;;;8.32;7.65;;;;;;;;;;4993222;28;20117;-58
2022/11/23 05:49:32;;;;;;;9.05;8.20;;;;;;;;;;4993377;28;20141;-58
2022/11/23 05:51:57;;;;;;;8.60;8.10;;;;;;;;;;4991163;28;20124;-57
2022/11/23 05:54:22;;;;;;;7.90;7.40;;;;;;;;;;4994406;28;20490;-58
2022/11/23 05:56:48;;;;;;;8.63;8.02;;;;;;;;;;4994359;28;20037;-58
2022/11/23 05:59:13;;;;;;;9.25;8.65;;;;;;;;;;4989348;28;20061;-58
2022/11/23 06:01:39;;;;;;;7.90;7.40;;;;;;;;;;4992231;28;20038;-58
2022/11/23 06:04:05;;;;;;;8.10;7.60;;;;;;;;;;4994668;28;20042;-58
2022/11/23 06:06:30;;;;;;;8.30;7.75;;;;;;;;;;4995882;28;20581;-58
2022/11/23 06:08:56;;;;;;;8.02;7.53;;;;;;;;;;4993940;28;20030;-53
2022/11/23 06:11:22;;;;;;;7.97;7.47;;;;;;;;;;4999252;28;20061;-58
2022/11/23 06:13:48;;;;;;;8.27;7.68;;;;;;;;;;4997537;28;20121;-58
2022/11/23 06:16:14;;;;;;;8.48;7.65;;;;;;;;;;4998378;28;20040;-58
2022/11/23 06:18:39;;;;;;;8.52;7.93;;;;;;;;;;4996964;28;20029;-58
2022/11/23 06:21:05;;;;;;;8.50;7.93;;;;;;;;;;4994513;28;20030;-58
2022/11/23 06:23:30;;;;;;;8.27;7.78;;;;;;;;;;5005909;28;20088;-58
2022/11/23 06:25:59;;;;;;;8.00;7.50;;;;;;;;;;4994379;28;20041;-58
2022/11/23 06:28:26;;;;;;;8.70;8.10;;;;;;;;;;4998972;28;20034;-59
2022/11/23 06:30:51;;;;;;;8.13;7.63;;;;;;;;;;4997886;28;20088;-58
2022/11/23 06:33:16;;;;;;;8.48;7.88;;;;;;;;;;4996981;28;20029;-58
2022/11/23 06:35:42;;;;;;;8.70;8.10;;;;;;;;;;4996774;28;20034;-59
2022/11/23 06:38:07;;;;;;;8.60;8.00;;;;;;;;;;4996230;28;20117;-58
2022/11/23 06:40:33;;;;;;;7.43;6.93;;;;;;;;;;4995532;28;20042;-58
2022/11/23 06:42:59;;;;;;;8.75;8.15;;;;;;;;;;4993375;28;20156;-53
2022/11/23 06:45:24;;;;;;;8.25;7.75;;;;;;;;;;4995253;28;20566;-55
2022/11/23 06:47:49;;;;;;;8.43;7.82;;;;;;;;;;4999551;28;20428;-53
2022/11/23 06:50:15;;;;;;;8.60;8.00;;;;;;;;;;4999773;28;20103;-53
2022/11/23 06:52:40;;;;;;;8.00;7.50;;;;;;;;;;4998160;28;20045;-52
2022/11/23 06:55:06;;;;;;;8.18;7.57;;;;;;;;;;4998094;28;20056;-53
2022/11/23 06:57:31;;;;;;;8.27;7.78;;;;;;;;;;4994590;28;20100;-52
2022/11/23 06:59:57;;;;;;;7.45;6.95;;;;;;;;;;4992350;28;20109;-51
2022/11/23 07:02:22;;;;;;;8.25;7.65;;;;;;;;;;4994826;28;20136;-52
2022/11/23 07:04:50;;;;;;;8.05;7.55;;;;;;;;;;4991184;28;20076;-52
2022/11/23 07:07:15;;;;;;;8.75;8.15;;;;;;;;;;4995624;28;20037;-51
2022/11/23 07:09:40;;;;;;;8.02;7.43;;;;;;;;;;4996740;28;20382;-53
2022/11/23 07:12:06;;;;;;;8.20;7.70;;;;;;;;;;4994051;28;20030;-52
2022/11/23 07:14:31;;;;;;;8.00;7.50;;;;;;;;;;4994482;28;20064;-51
2022/11/23 07:16:57;;;;;;;8.70;8.10;;;;;;;;;;4994088;28;20045;-54
2022/11/23 07:19:22;;;;;;;8.30;7.70;;;;;;;;;;4996215;28;20025;-53
2022/11/23 07:21:48;;;;;;;9.63;8.82;;;;;;;;;;4992921;28;20084;-52
2022/11/23 07:24:13;;;;;;;7.65;7.15;;;;;;;;;;4993920;28;20050;-53
2022/11/23 07:26:39;;;;;;;8.05;7.55;;;;;;;;;;4994134;28;20030;-52
2022/11/23 07:29:04;;;;;;;7.60;7.10;;;;;;;;;;4994875;28;20033;-54
2022/11/23 07:31:30;;;;;;;8.15;7.57;;;;;;;;;;4992875;28;20125;-53
2022/11/23 07:33:55;;;;;;;8.45;7.72;;;;;;;;;;4995191;28;20078;-54
2022/11/23 07:36:20;;;;;;;7.88;7.28;;;;;;;;;;4994473;28;20030;-54
2022/11/23 07:38:46;;;;;;;8.73;8.07;;;;;;;;;;4993136;28;20129;-56
2022/11/23 07:41:11;;;;;;;8.45;7.95;;;;;;;;;;4996566;28;20723;-54
2022/11/23 07:43:36;;;;;;;9.38;8.73;;;;;;;;;;4996163;28;20045;-57
2022/11/23 07:46:02;;;;;;;9.18;8.55;;;;;;;;;;4987889;28;20606;-54
2022/11/23 07:48:27;;;;;;;7.88;7.38;;;;;;;;;;4993333;28;20557;-55
2022/11/23 07:50:53;;;;;;;8.38;7.85;;;;;;;;;;4995273;28;21033;-56
2022/11/23 07:53:19;;;;;;;7.57;7.07;;;;;;;;;;4992490;28;20520;-54
2022/11/23 07:55:45;;;;;;;8.48;7.88;;;;;;;;;;4988196;28;20057;-56
2022/11/23 07:58:10;;;;;;;7.70;7.20;;;;;;;;;;4988109;28;20462;-54
2022/11/23 08:00:36;;;;;;;8.55;7.95;;;;;;;;;;4980091;28;20148;-54
2022/11/23 08:03:02;;;;;;;8.57;8.05;;;;;;;;;;4986991;28;20042;-54
2022/11/23 08:05:27;;;;;;;8.20;7.70;;;;;;;;;;4990471;28;20034;-55
2022/11/23 08:08:00;;;;;;;9.00;8.40;;;;;;;;;;4991089;28;20137;-54
2022/11/23 08:10:30;;;;;;;7.82;7.28;;;;;;;;;;4993425;28;20088;-54
2022/11/23 08:13:03;;;;;;;9.82;9.13;;;;;;;;;;4991142;28;20344;-54
2022/11/23 08:15:29;;;;;;;7.90;7.40;;;;;;;;;;4992293;28;20044;-51
2022/11/23 08:17:59;;;;;;;8.65;7.85;;;;;;;;;;4992675;28;20038;-54
2022/11/23 08:20:25;;;;;;;8.02;7.53;;;;;;;;;;4993371;28;20061;-55
2022/11/23 08:22:54;;;;;;;7.95;7.35;;;;;;;;;;4993251;28;20030;-54
2022/11/23 08:25:24;;;;;;;8.25;7.72;;;;;;;;;;4990583;28;20471;-55
2022/11/23 08:28:01;;;;;;;8.13;7.60;;;;;;;;;;4991025;28;20489;-53
2022/11/23 08:30:27;;;;;;;8.48;7.97;;;;;;;;;;4992795;28;20762;-55
2022/11/23 08:32:53;;;;;;;8.50;7.90;;;;;;;;;;4993127;28;20091;-55
2022/11/23 08:35:19;;;;;;;8.48;7.93;;;;;;;;;;4993795;28;20108;-55
2022/11/23 08:37:44;;;;;;;8.68;8.15;;;;;;;;;;4994341;28;20101;-55
2022/11/23 08:40:10;;;;;;;9.00;8.40;;;;;;;;;;4992122;28;20026;-55
2022/11/23 08:42:35;;;;;;;8.38;7.88;;;;;;;;;;4989927;28;20030;-54
2022/11/23 08:45:03;;;;;;;8.07;7.57;;;;;;;;;;4991449;28;20037;-52
2022/11/23 08:47:29;;;;;;;8.73;8.18;;;;;;;;;;4991942;28;20334;-55
2022/11/23 08:49:55;;;;;;;8.82;8.23;;;;;;;;;;4993001;28;20022;-55
2022/11/23 08:52:20;;;;;;;7.75;7.25;;;;;;;;;;4992600;28;20045;-55
2022/11/23 08:54:45;;;;;;;9.13;8.52;;;;;;;;;;4992568;28;20030;-55
2022/11/23 08:57:11;;;;;;;8.38;7.88;;;;;;;;;;4993236;28;20040;-56
2022/11/23 08:59:36;;;;;;;9.00;8.20;;;;;;;;;;4992251;28;20033;-52
2022/11/23 09:02:02;;;;;;;8.38;7.88;;;;;;;;;;4989015;28;20037;-54
2022/11/23 09:04:29;;;;;;;7.95;7.45;;;;;;;;;;4991485;28;20025;-52
2022/11/23 09:06:55;;;;;;;8.38;7.88;;;;;;;;;;4991494;28;20037;-52
2022/11/23 09:09:20;;;;;;;7.57;7.07;;;;;;;;;;4988738;28;20030;-53
2022/11/23 09:11:46;;;;;;;8.40;7.90;;;;;;;;;;4987110;28;20383;-53
2022/11/23 09:14:12;;;;;;;9.13;7.93;;;;;;;;;;4992650;28;20076;-53
2022/11/23 09:16:37;;;;;;;8.30;7.80;;;;;;;;;;4990008;28;20429;-53
2022/11/23 09:19:02;;;;;;;8.38;7.82;;;;;;;;;;4992306;28;20033;-53
2022/11/23 09:21:32;;;;;;;8.48;7.88;;;;;;;;;;4987840;28;20027;-53
2022/11/23 09:23:57;;;;;;;8.65;8.07;;;;;;;;;;4988636;28;20054;-53
2022/11/23 09:26:24;;;;;;;8.80;8.20;;;;;;;;;;4991454;28;20076;-54
2022/11/23 09:28:49;;;;;;;8.65;8.05;;;;;;;;;;4993255;28;20034;-54
2022/11/23 09:31:15;;;;;;;8.57;7.97;;;;;;;;;;4992845;28;20338;-53
2022/11/23 09:33:40;;;;;;;8.40;7.78;;;;;;;;;;4991335;28;20362;-54
2022/11/23 09:36:06;;;;;;;9.35;8.73;;;;;;;;;;4995507;28;20043;-53
2022/11/23 09:38:31;;;;;;;8.93;8.32;;;;;;;;;;4993022;28;20092;-53
2022/11/23 09:41:30;;;;;;;8.70;8.15;;;;;;;;;;4991367;28;20057;-53
2022/11/23 09:44:03;;;;;;;8.70;8.10;;;;;;;;;;4991605;28;20038;-55
2022/11/23 09:46:58;;;;;;;9.18;8.45;;;;;;;;;;4990835;28;20424;-53
2022/11/23 09:49:39;;;;;;;9.20;8.60;;;;;;;;;;4992237;28;20677;-54
2022/11/23 09:52:20;;;;;;;11.25;8.07;;;;;;;;;;4990375;28;20419;-53
2022/11/23 09:54:49;;;;;;;8.48;7.95;;;;;;;;;;4992507;28;20045;-53
2022/11/23 09:57:20;;;;;;;8.70;8.00;;;;;;;;;;4992209;28;20034;-54
2022/11/23 10:00:04;;;;;;;9.40;8.80;;;;;;;;;;4993482;28;20127;-55
2022/11/23 10:02:35;;;;;;;10.10;9.25;;;;;;;;;;4991455;28;20078;-53
2022/11/23 10:05:02;;;;;;;9.43;8.82;;;;;;;;;;4989503;28;20030;-56
2022/11/23 10:07:42;;;;;;;9.38;8.77;;;;;;;;;;4993575;28;20478;-54
2022/11/23 10:10:53;;;;;;;13.43;9.90;;;;;;;;;;4990241;28;20038;-52
2022/11/23 10:13:25;;;;;;;11.07;10.37;;;;;;;;;;4990390;28;20562;-53
2022/11/23 10:15:56;;;;;;;10.00;9.32;;;;;;;;;;4991121;28;20042;-52
2022/11/23 10:18:33;;;;;;;;;;;;;;;;;;4992265;28;20650;-54
2022/11/23 10:21:18;;;;;;;10.65;9.85;;;;;;;;;;4991687;28;19975;-50
2022/11/23 10:24:09;;;;;;;10.45;9.75;;;;;;;;;;4992076;28;20200;-54
2022/11/23 10:26:38;;;;;;;9.00;8.40;;;;;;;;;;4993345;28;20034;-54
2022/11/23 10:29:24;;;;;;;11.43;10.68;;;;;;;;;;4991701;28;20122;-50
2022/11/23 10:31:51;;;;;;;10.93;10.13;;;;;;;;;;4992085;28;20049;-54
2022/11/23 10:34:22;;;;;;;10.98;10.27;;;;;;;;;;4991980;28;20027;-53
2022/11/23 10:36:48;;;;;;;;;;;;;;;;;;4991777;28;20114;-51
2022/11/23 10:39:13;;;;;;;10.57;9.88;;;;;;;;;;4993665;28;20351;-54
2022/11/23 10:41:38;;;;;;;9.77;9.18;;;;;;;;;;4989229;28;20038;-52
2022/11/23 10:44:33;;;;;;;9.95;9.30;;;;;;;;;;4993590;28;20034;-51
2022/11/23 10:46:59;;;;;;;9.82;9.23;;;;;;;;;;4989994;28;20022;-55
2022/11/23 10:49:28;;;;;;;10.00;9.40;;;;;;;;;;4992507;28;20030;-55
2022/11/23 10:51:54;;;;;;;9.75;9.15;;;;;;;;;;4998756;28;20570;-55
2022/11/23 10:54:24;;;;;;;10.25;9.65;;;;;;;;;;4991334;28;20120;-53
2022/11/23 10:56:51;;;;;;;9.63;9.02;;;;;;;;;;4993354;28;20026;-53
2022/11/23 10:59:26;;;;;;;9.10;8.50;;;;;;;;;;4997259;28;20563;-53
2022/11/23 11:02:12;;;;;;;11.40;10.43;;;;;;;;;;4995184;28;20065;-53
2022/11/23 11:04:37;;;;;;;11.18;10.05;;;;;;;;;;4998430;28;20065;-53
2022/11/23 11:07:21;;;;;;;9.52;8.93;;;;;;;;;;4995606;28;20065;-55
2022/11/23 11:09:57;;;;;;;10.43;9.82;;;;;;;;;;4995574;28;20041;-53
2022/11/23 11:12:24;;;;;;;10.70;10.00;;;;;;;;;;4991569;28;20033;-54
2022/11/23 11:15:02;;;;;;;10.88;10.07;;;;;;;;;;4992320;28;20035;-52
2022/11/23 11:17:34;;;;;;;11.27;10.38;;;;;;;;;;4995537;28;20531;-53
2022/11/23 11:20:21;;;;;;;11.38;10.68;;;;;;;;;;4997297;28;20030;-55
2022/11/23 11:22:46;;;;;;;12.20;11.40;;;;;;;;;;4994276;28;20026;-54
2022/11/23 11:25:30;;;;;;;10.85;10.15;;;;;;;;;;4994390;28;20025;-55
2022/11/23 11:27:57;;;;;;;12.27;11.57;;;;;;;;;;4994283;28;20376;-53
2022/11/23 11:30:23;;;;;;;10.70;10.00;;;;;;;;;;4994342;28;20034;-54
2022/11/23 11:33:10;;;;;;;10.27;9.68;;;;;;;;;;4993690;28;20030;-54
2022/11/23 11:35:41;;;;;;;10.90;10.02;;;;;;;;;;4994183;28;20041;-54
2022/11/23 11:38:28;;;;;;;11.57;10.88;;;;;;;;;;4993961;28;20104;-54
2022/11/23 11:40:58;;;;;;;11.07;10.40;;;;;;;;;;4992945;28;20034;-53
2022/11/23 11:43:29;;;;;;;10.63;10.02;;;;;;;;;;4999173;28;20034;-55
2022/11/23 11:46:02;;;;;;;12.60;11.80;;;;;;;;;;4991014;28;20041;-53
2022/11/23 11:48:34;;;;;;;12.48;11.77;;;;;;;;;;4996525;28;20040;-56
2022/11/23 11:51:18;;;;;;;11.82;11.13;;;;;;;;;;4995329;28;20037;-54
2022/11/23 11:53:47;;;;;;;13.93;13.02;;;;;;;;;;4995146;28;20125;-53
2022/11/23 11:56:29;;;;;;;13.52;12.73;;;;;;;;;;4993273;28;20091;-55
2022/11/23 11:59:18;;;;;;;13.70;12.90;;;;;;;;;;4997028;28;20061;-55
2022/11/23 12:01:56;;;;;;;13.98;13.07;;;;;;;;;;4996737;28;20071;-54
2022/11/23 12:05:02;;;;;;;14.93;14.05;;;;;;;;;;4996187;28;20037;-52
2022/11/23 12:07:35;;;;;;;15.25;14.35;;;;;;;;;;4989828;28;20053;-52
2022/11/23 12:10:29;;;;;;;14.20;13.40;;;;;;;;;;4994459;28;20100;-54
2022/11/23 12:12:57;;;;;;;13.95;13.13;;;;;;;;;;4995712;28;20045;-54
2022/11/23 12:15:45;;;;;;;15.95;14.98;;;;;;;;;;4993907;28;20026;-55
2022/11/23 12:18:33;;;;;;;15.25;14.25;;;;;;;;;;4992660;28;20030;-51
2022/11/23 12:21:24;;;;;;;14.25;13.45;;;;;;;;;;4994126;28;20026;-55
2022/11/23 12:24:13;;;;;;;16.20;15.07;;;;;;;;;;4989247;28;20042;-53
2022/11/23 12:26:55;;;;;;;14.55;13.75;;;;;;;;;;4997581;28;20129;-56
2022/11/23 12:29:25;;;;;;;14.57;13.68;;;;;;;;;;4991080;28;20508;-55
2022/11/23 12:32:09;;;;;;;15.40;14.50;;;;;;;;;;4994168;28;20042;-53
2022/11/23 12:34:49;;;;;;;14.82;13.93;;;;;;;;;;4993395;28;20505;-55
2022/11/23 12:37:24;;;;;;;16.13;15.23;;;;;;;;;;4994611;28;20064;-52
2022/11/23 12:39:56;;;;;;;15.38;14.48;;;;;;;;;;4995018;28;20041;-52
2022/11/23 12:42:21;;;;;;;15.90;14.90;;;;;;;;;;4993848;28;20038;-55
2022/11/23 12:45:18;;;;;;;15.40;14.50;;;;;;;;;;4993480;28;20525;-50
2022/11/23 12:48:06;;;;;;;15.05;14.13;;;;;;;;;;4994554;28;20041;-54
2022/11/23 12:50:42;;;;;;;14.80;14.00;;;;;;;;;;4993337;28;20108;-52
2022/11/23 12:53:32;;;;;;;15.05;14.15;;;;;;;;;;4993282;28;20042;-51
2022/11/23 12:56:23;;;;;;;14.65;13.85;;;;;;;;;;4992743;28;20109;-54
2022/11/23 12:58:51;;;;;;;13.80;13.00;;;;;;;;;;4990038;28;20065;-51
2022/11/23 13:01:31;;;;;;;13.57;12.77;;;;;;;;;;4993223;28;20025;-53
2022/11/23 13:04:21;;;;;;;13.50;12.55;;;;;;;;;;4995275;28;20070;-55
2022/11/23 13:07:07;;;;;;;12.20;11.40;;;;;;;;;;4991167;28;20050;-54
2022/11/23 13:09:56;;;;;;;11.65;10.95;;;;;;;;;;4972138;28;20044;-53
2022/11/23 13:12:24;;;;;;;13.32;12.52;;;;;;;;;;4993214;28;20547;-52
2022/11/23 13:15:04;;;;;;;11.77;11.07;;;;;;;;;;4993331;28;20030;-53
2022/11/23 13:18:00;;;;;;;12.32;11.63;;;;;;;;;;4998274;28;20041;-53
2022/11/23 13:20:47;;;;;;;12.35;11.63;;;;;;;;;;4994857;28;20197;-53
2022/11/23 13:23:12;;;;;;;11.20;10.50;;;;;;;;;;4990523;28;20034;-54
2022/11/23 13:25:38;;;;;;;11.98;11.20;;;;;;;;;;4992634;28;20056;-52
2022/11/23 13:28:24;;;;;;;11.10;10.40;;;;;;;;;;4991460;28;20049;-54
2022/11/23 13:31:15;;;;;;;11.50;10.80;;;;;;;;;;4998335;28;20026;-52
2022/11/23 13:33:46;;;;;;;12.43;11.52;;;;;;;;;;4993511;28;20055;-55
2022/11/23 13:36:33;;;;;;;13.13;12.23;;;;;;;;;;4991647;28;20383;-53
2022/11/23 13:39:02;;;;;;;11.35;10.65;;;;;;;;;;4993510;28;20030;-53
2022/11/23 13:41:34;;;;;;;11.48;10.77;;;;;;;;;;4992426;28;20608;-53
2022/11/23 13:44:30;;;;;;;11.77;11.07;;;;;;;;;;4988877;28;20104;-51
2022/11/23 13:47:00;;;;;;;12.73;11.90;;;;;;;;;;4985527;28;20045;-50
2022/11/23 13:49:44;;;;;;;12.35;11.55;;;;;;;;;;4989127;28;20029;-54
2022/11/23 13:52:21;;;;;;;26.50;11.30;;;;;;;;;;4991541;28;20645;-53
2022/11/23 13:54:55;;;;;;;11.77;11.07;;;;;;;;;;4989531;28;20041;-50
2022/11/23 13:57:21;;;;;;;10.93;10.25;;;;;;;;;;4989705;28;20029;-51
2022/11/23 13:59:47;;;;;;;11.85;11.15;;;;;;;;;;4989827;28;20454;-50
2022/11/23 14:02:15;;;;;;;12.93;11.77;;;;;;;;;;4991500;28;20643;-49
2022/11/23 14:04:42;;;;;;;11.73;11.02;;;;;;;;;;4990451;28;20026;-51
2022/11/23 14:07:13;;;;;;;12.50;11.77;;;;;;;;;;4994192;28;20050;-51
2022/11/23 14:09:51;;;;;;;12.00;11.30;;;;;;;;;;4990316;28;20337;-52
2022/11/23 14:12:30;;;;;;;13.20;12.40;;;;;;;;;;4992178;28;20328;-54
2022/11/23 14:15:24;;;;;;;12.00;11.30;;;;;;;;;;4992793;28;20030;-52
2022/11/23 14:17:57;;;;;;;12.15;11.45;;;;;;;;;;4988772;28;20033;-53
2022/11/23 14:20:39;;;;;;;14.05;13.25;;;;;;;;;;4991155;28;20468;-53
2022/11/23 14:23:30;;;;;;;13.73;12.93;;;;;;;;;;4989040;28;20312;-53
2022/11/23 14:26:26;;;;;;;14.88;13.00;;;;;;;;;;4989994;28;20109;-53
2022/11/23 14:28:56;;;;;;;12.43;11.73;;;;;;;;;;4993043;28;20480;-53
2022/11/23 14:31:50;;;;;;;11.82;11.13;;;;;;;;;;4995198;28;20029;-53
2022/11/23 14:34:43;;;;;;;14.35;13.55;;;;;;;;;;4992708;28;20030;-50
2022/11/23 14:37:35;;;;;;;13.10;12.30;;;;;;;;;;4995534;28;20019;-51
2022/11/23 14:40:15;;;;;;;13.85;13.05;;;;;;;;;;4995993;28;20038;-52
2022/11/23 14:42:44;;;;;;;13.82;12.93;;;;;;;;;;4995904;28;20026;-52
2022/11/23 14:45:14;;;;;;;14.23;13.43;;;;;;;;;;4994899;28;20129;-52
2022/11/23 14:47:39;;;;;;;22.95;13.38;;;;;;;;;;4991253;28;20140;-52
2022/11/23 14:50:05;;;;;;;14.25;13.45;;;;;;;;;;4997942;28;20034;-50
2022/11/23 14:52:35;;;;;;;15.40;14.50;;;;;;;;;;4994605;28;20041;-50
2022/11/23 14:55:04;;;;;;;15.20;14.30;;;;;;;;;;4992737;28;20895;-53